createdAt,value
2022-10-21T00:00:41.119Z,962.49
2022-10-21T00:01:41.126Z,962.57
2022-10-21T00:02:41.262Z,962.65
2022-10-21T00:03:41.133Z,962.63
2022-10-21T00:04:40.964Z,962.63
2022-10-21T00:05:40.916Z,962.52
2022-10-21T00:06:40.866Z,962.47
2022-10-21T00:07:40.820Z,962.49
2022-10-21T00:08:40.889Z,962.50
2022-10-21T00:09:40.787Z,962.57
2022-10-21T00:10:40.703Z,962.50
2022-10-21T00:11:40.661Z,962.50
2022-10-21T00:12:40.854Z,962.47
2022-10-21T00:13:40.567Z,962.51
2022-10-21T00:14:40.527Z,962.50
2022-10-21T00:15:40.490Z,962.50
2022-10-21T00:16:40.522Z,962.41
2022-10-21T00:17:40.476Z,962.35
2022-10-21T00:18:40.358Z,962.32
2022-10-21T00:19:40.320Z,962.28
2022-10-21T00:20:40.284Z,962.25
2022-10-21T00:21:40.234Z,962.23
2022-10-21T00:22:40.579Z,962.25
2022-10-21T00:23:40.171Z,962.25
2022-10-21T00:24:40.107Z,962.27
2022-10-21T00:25:40.064Z,962.29
2022-10-21T00:26:40.082Z,962.35
2022-10-21T00:27:40.124Z,962.39
2022-10-21T00:28:39.957Z,962.38
2022-10-21T00:29:39.919Z,962.40
2022-10-21T00:30:39.854Z,962.44
2022-10-21T00:31:39.841Z,962.47
2022-10-21T00:32:40.058Z,962.48
2022-10-21T00:33:39.728Z,962.45
2022-10-21T00:34:39.686Z,962.47
2022-10-21T00:35:39.688Z,962.47
2022-10-21T00:36:39.618Z,962.44
2022-10-21T00:37:39.928Z,962.47
2022-10-21T00:38:39.514Z,962.42
2022-10-21T00:39:39.560Z,962.45
2022-10-21T00:40:39.456Z,962.46
2022-10-21T00:41:39.420Z,962.41
2022-10-21T00:42:42.134Z,962.41
2022-10-21T00:43:39.342Z,962.44
2022-10-21T00:44:39.286Z,962.41
2022-10-21T00:45:39.229Z,962.41
2022-10-21T00:46:39.186Z,962.42
2022-10-21T00:47:39.197Z,962.38
2022-10-21T00:48:39.094Z,962.33
2022-10-21T00:49:39.056Z,962.35
2022-10-21T00:50:41.808Z,962.26
2022-10-21T00:51:38.975Z,962.26
2022-10-21T00:52:39.320Z,962.25
2022-10-21T00:53:38.891Z,962.23
2022-10-21T00:54:38.889Z,962.19
2022-10-21T00:55:38.835Z,962.18
2022-10-21T00:56:38.806Z,962.20
2022-10-21T00:57:38.892Z,962.18
2022-10-21T00:58:38.672Z,962.21
2022-10-21T00:59:38.637Z,962.20
2022-10-21T01:00:38.730Z,962.21
2022-10-21T01:01:38.734Z,962.15
2022-10-21T01:02:38.507Z,962.12
2022-10-21T01:03:38.477Z,962.16
2022-10-21T01:04:38.424Z,962.24
2022-10-21T01:05:38.512Z,962.25
2022-10-21T01:06:38.333Z,962.25
2022-10-21T01:07:41.103Z,962.28
2022-10-21T01:08:38.271Z,962.31
2022-10-21T01:09:38.212Z,962.37
2022-10-21T01:10:38.168Z,962.43
2022-10-21T01:11:38.152Z,962.46
2022-10-21T01:12:38.082Z,962.46
2022-10-21T01:13:38.050Z,962.49
2022-10-21T01:14:38.000Z,962.58
2022-10-21T01:15:37.964Z,962.59
2022-10-21T01:16:37.915Z,962.62
2022-10-21T01:17:44.919Z,962.65
2022-10-21T01:18:37.838Z,962.64
2022-10-21T01:19:37.790Z,962.60
2022-10-21T01:20:37.745Z,962.57
2022-10-21T01:21:37.704Z,962.54
2022-10-21T01:22:37.668Z,962.51
2022-10-21T01:23:37.649Z,962.49
2022-10-21T01:24:37.585Z,962.48
2022-10-21T01:25:37.557Z,962.51
2022-10-21T01:26:37.505Z,962.53
2022-10-21T01:27:37.780Z,962.50
2022-10-21T01:28:37.410Z,962.53
2022-10-21T01:29:37.374Z,962.53
2022-10-21T01:30:37.324Z,962.46
2022-10-21T01:31:37.308Z,962.44
2022-10-21T01:32:37.240Z,962.39
2022-10-21T01:33:37.196Z,962.35
2022-10-21T01:34:37.167Z,962.35
2022-10-21T01:35:37.110Z,962.32
2022-10-21T01:36:37.083Z,962.33
2022-10-21T01:37:37.302Z,962.34
2022-10-21T01:38:37.006Z,962.36
2022-10-21T01:39:36.943Z,962.30
2022-10-21T01:40:36.900Z,962.27
2022-10-21T01:41:36.858Z,962.30
2022-10-21T01:42:37.086Z,962.24
2022-10-21T01:43:36.770Z,962.26
2022-10-21T01:44:36.740Z,962.25
2022-10-21T01:45:36.686Z,962.24
2022-10-21T01:46:36.647Z,962.20
2022-10-21T01:47:36.599Z,962.21
2022-10-21T01:48:36.562Z,962.15
2022-10-21T01:49:36.539Z,962.13
2022-10-21T01:50:36.480Z,962.09
2022-10-21T01:51:36.432Z,962.02
2022-10-21T01:52:36.642Z,961.95
2022-10-21T01:53:36.347Z,961.95
2022-10-21T01:54:36.404Z,961.95
2022-10-21T01:55:36.283Z,961.96
2022-10-21T01:56:36.224Z,961.97
2022-10-21T01:57:36.177Z,961.98
2022-10-21T01:58:36.138Z,961.91
2022-10-21T01:59:36.106Z,961.92
2022-10-21T02:00:36.068Z,961.90
2022-10-21T02:01:36.069Z,961.88
2022-10-21T02:02:36.186Z,961.80
2022-10-21T02:03:35.918Z,961.78
2022-10-21T02:04:35.889Z,961.70
2022-10-21T02:05:35.836Z,961.68
2022-10-21T02:06:35.795Z,961.68
2022-10-21T02:07:35.752Z,961.63
2022-10-21T02:08:35.741Z,961.58
2022-10-21T02:09:35.698Z,961.54
2022-10-21T02:10:35.629Z,961.54
2022-10-21T02:11:35.583Z,961.48
2022-10-21T02:12:35.723Z,961.47
2022-10-21T02:13:35.497Z,961.48
2022-10-21T02:14:35.459Z,961.47
2022-10-21T02:15:35.426Z,961.41
2022-10-21T02:16:35.373Z,961.35
2022-10-21T02:17:35.502Z,961.29
2022-10-21T02:18:35.288Z,961.26
2022-10-21T02:19:35.246Z,961.20
2022-10-21T02:20:35.203Z,961.21
2022-10-21T02:21:35.169Z,961.21
2022-10-21T02:22:35.221Z,961.24
2022-10-21T02:23:35.096Z,961.23
2022-10-21T02:24:35.031Z,961.21
2022-10-21T02:25:34.992Z,961.25
2022-10-21T02:26:34.942Z,961.30
2022-10-21T02:27:34.907Z,961.34
2022-10-21T02:28:34.895Z,961.29
2022-10-21T02:29:34.841Z,961.32
2022-10-21T02:30:34.782Z,961.35
2022-10-21T02:31:34.758Z,961.38
2022-10-21T02:32:34.693Z,961.42
2022-10-21T02:33:34.649Z,961.45
2022-10-21T02:34:34.613Z,961.37
2022-10-21T02:35:34.597Z,961.36
2022-10-21T02:36:34.528Z,961.34
2022-10-21T02:37:34.519Z,961.26
2022-10-21T02:38:34.439Z,961.22
2022-10-21T02:39:34.393Z,961.16
2022-10-21T02:40:34.353Z,961.19
2022-10-21T02:41:34.328Z,961.16
2022-10-21T02:42:34.273Z,961.08
2022-10-21T02:43:34.227Z,961.06
2022-10-21T02:44:34.182Z,961.06
2022-10-21T02:45:34.139Z,961.07
2022-10-21T02:46:34.099Z,961.08
2022-10-21T02:47:34.075Z,961.10
2022-10-21T02:48:34.016Z,961.10
2022-10-21T02:49:33.969Z,961.12
2022-10-21T02:50:33.934Z,961.07
2022-10-21T02:51:33.890Z,961.03
2022-10-21T02:52:33.846Z,961.04
2022-10-21T02:53:33.830Z,961.08
2022-10-21T02:54:33.766Z,961.06
2022-10-21T02:55:33.718Z,961.09
2022-10-21T02:56:33.684Z,961.09
2022-10-21T02:57:33.632Z,961.07
2022-10-21T02:58:33.595Z,961.05
2022-10-21T02:59:33.567Z,961.09
2022-10-21T03:00:33.527Z,961.12
2022-10-21T03:01:33.465Z,961.17
2022-10-21T03:02:33.425Z,961.10
2022-10-21T03:03:33.382Z,961.06
2022-10-21T03:04:33.338Z,961.06
2022-10-21T03:05:33.346Z,961.11
2022-10-21T03:06:33.257Z,961.12
2022-10-21T03:07:33.214Z,961.13
2022-10-21T03:08:33.236Z,961.15
2022-10-21T03:09:33.129Z,961.16
2022-10-21T03:10:33.110Z,961.10
2022-10-21T03:11:33.048Z,961.04
2022-10-21T03:12:33.021Z,961.00
2022-10-21T03:13:32.958Z,960.91
2022-10-21T03:14:32.932Z,960.87
2022-10-21T03:15:32.878Z,960.86
2022-10-21T03:16:32.834Z,960.99
2022-10-21T03:17:32.788Z,961.06
2022-10-21T03:18:32.775Z,961.04
2022-10-21T03:19:32.708Z,960.91
2022-10-21T03:20:32.667Z,960.80
2022-10-21T03:21:32.624Z,960.85
2022-10-21T03:22:32.577Z,960.95
2022-10-21T03:23:32.540Z,960.96
2022-10-21T03:24:32.516Z,960.80
2022-10-21T03:25:35.519Z,960.73
2022-10-21T03:26:32.412Z,960.74
2022-10-21T03:28:32.339Z,960.96
2022-10-21T03:29:32.285Z,961.00
2022-10-21T03:30:32.265Z,960.93
2022-10-21T03:31:32.199Z,960.82
2022-10-21T03:32:32.164Z,960.70
2022-10-21T03:33:32.139Z,960.73
2022-10-21T03:34:32.075Z,960.79
2022-10-21T03:35:32.034Z,960.86
2022-10-21T03:36:32.015Z,960.97
2022-10-21T03:37:31.946Z,960.96
2022-10-21T03:38:31.907Z,960.95
2022-10-21T03:39:31.882Z,960.87
2022-10-21T03:40:31.820Z,960.82
2022-10-21T03:41:31.774Z,960.81
2022-10-21T03:42:31.739Z,960.79
2022-10-21T03:43:31.694Z,960.88
2022-10-21T03:44:31.649Z,960.93
2022-10-21T03:45:31.620Z,960.98
2022-10-21T03:46:31.573Z,960.99
2022-10-21T03:47:31.526Z,960.98
2022-10-21T03:48:31.487Z,960.94
2022-10-21T03:49:31.487Z,960.88
2022-10-21T03:50:31.419Z,960.91
2022-10-21T03:51:31.355Z,960.91
2022-10-21T03:52:31.314Z,960.94
2022-10-21T03:53:42.865Z,960.93
2022-10-21T03:54:31.224Z,960.94
2022-10-21T03:55:31.187Z,960.96
2022-10-21T03:56:31.156Z,960.97
2022-10-21T03:57:31.102Z,960.94
2022-10-21T03:58:31.080Z,960.85
2022-10-21T03:59:31.017Z,960.76
2022-10-21T04:00:31.779Z,960.78
2022-10-21T04:01:31.026Z,960.73
2022-10-21T04:02:30.895Z,960.74
2022-10-21T04:03:30.851Z,960.73
2022-10-21T04:04:30.832Z,960.71
2022-10-21T04:05:30.764Z,960.72
2022-10-21T04:06:30.719Z,960.72
2022-10-21T04:07:30.676Z,960.70
2022-10-21T04:08:30.660Z,960.68
2022-10-21T04:09:30.592Z,960.67
2022-10-21T04:10:30.603Z,960.69
2022-10-21T04:11:30.513Z,960.73
2022-10-21T04:12:30.470Z,960.75
2022-10-21T04:13:30.429Z,960.81
2022-10-21T04:14:30.383Z,960.82
2022-10-21T04:15:30.341Z,960.80
2022-10-21T04:16:30.338Z,960.67
2022-10-21T04:17:30.258Z,960.60
2022-10-21T04:18:30.217Z,960.50
2022-10-21T04:19:30.169Z,960.39
2022-10-21T04:20:30.128Z,960.24
2022-10-21T04:21:30.094Z,960.14
2022-10-21T04:22:30.076Z,960.06
2022-10-21T04:23:30.000Z,959.96
2022-10-21T04:24:29.991Z,959.99
2022-10-21T04:25:29.923Z,959.92
2022-10-21T04:26:29.873Z,959.89
2022-10-21T04:27:29.835Z,959.86
2022-10-21T04:28:29.791Z,959.77
2022-10-21T04:29:29.748Z,959.69
2022-10-21T04:30:29.723Z,959.67
2022-10-21T04:31:32.088Z,959.63
2022-10-21T04:32:29.620Z,959.60
2022-10-21T04:33:29.577Z,959.61
2022-10-21T04:34:29.542Z,959.56
2022-10-21T04:35:29.498Z,959.54
2022-10-21T04:36:29.470Z,959.53
2022-10-21T04:37:29.414Z,959.53
2022-10-21T04:38:29.368Z,959.59
2022-10-21T04:39:29.331Z,959.57
2022-10-21T04:40:29.286Z,959.59
2022-10-21T04:41:29.245Z,959.58
2022-10-21T04:42:29.234Z,959.60
2022-10-21T04:43:29.159Z,959.61
2022-10-21T04:44:29.113Z,959.57
2022-10-21T04:45:29.072Z,959.57
2022-10-21T04:46:29.037Z,959.64
2022-10-21T04:47:28.989Z,959.65
2022-10-21T04:48:28.969Z,959.70
2022-10-21T04:49:28.902Z,959.72
2022-10-21T04:50:28.861Z,959.80
2022-10-21T04:51:28.877Z,959.82
2022-10-21T04:52:28.775Z,959.89
2022-10-21T04:53:28.737Z,959.93
2022-10-21T04:54:28.710Z,959.92
2022-10-21T04:55:28.656Z,959.91
2022-10-21T04:56:28.613Z,959.89
2022-10-21T04:57:28.567Z,959.88
2022-10-21T04:58:28.526Z,959.84
2022-10-21T04:59:28.504Z,959.80
2022-10-21T05:00:28.443Z,959.83
2022-10-21T05:01:28.437Z,959.86
2022-10-21T05:02:28.355Z,959.94
2022-10-21T05:03:28.313Z,959.99
2022-10-21T05:04:28.277Z,960.01
2022-10-21T05:05:28.238Z,960.01
2022-10-21T05:06:28.191Z,959.93
2022-10-21T05:07:28.168Z,959.90
2022-10-21T05:08:28.229Z,959.85
2022-10-21T05:09:28.053Z,959.80
2022-10-21T05:10:28.107Z,959.75
2022-10-21T05:11:27.974Z,959.82
2022-10-21T05:12:28.013Z,959.76
2022-10-21T05:13:27.915Z,959.73
2022-10-21T05:14:27.850Z,959.71
2022-10-21T05:15:27.836Z,959.72
2022-10-21T05:16:27.764Z,959.75
2022-10-21T05:17:27.725Z,959.71
2022-10-21T05:18:27.683Z,959.69
2022-10-21T05:19:31.010Z,959.65
2022-10-21T05:20:27.597Z,959.64
2022-10-21T05:21:27.613Z,959.61
2022-10-21T05:22:27.518Z,959.63
2022-10-21T05:23:27.476Z,959.62
2022-10-21T05:24:27.426Z,959.59
2022-10-21T05:25:30.332Z,959.60
2022-10-21T05:26:27.341Z,959.53
2022-10-21T05:27:27.326Z,959.48
2022-10-21T05:28:27.265Z,959.43
2022-10-21T05:29:27.237Z,959.37
2022-10-21T05:30:27.251Z,959.34
2022-10-21T05:31:27.129Z,959.35
2022-10-21T05:32:27.086Z,959.35
2022-10-21T05:33:27.042Z,959.39
2022-10-21T05:34:27.013Z,959.43
2022-10-21T05:35:26.968Z,959.44
2022-10-21T05:36:26.920Z,959.44
2022-10-21T05:37:26.898Z,959.50
2022-10-21T05:38:26.832Z,959.58
2022-10-21T05:39:26.794Z,959.64
2022-10-21T05:40:26.752Z,959.68
2022-10-21T05:41:26.702Z,959.76
2022-10-21T05:42:26.667Z,959.92
2022-10-21T05:43:26.697Z,960.07
2022-10-21T05:44:26.607Z,960.13
2022-10-21T05:45:26.531Z,960.27
2022-10-21T05:46:26.495Z,960.34
2022-10-21T05:47:26.449Z,960.41
2022-10-21T05:48:26.404Z,960.63
2022-10-21T05:49:26.366Z,960.68
2022-10-21T05:50:26.341Z,960.80
2022-10-21T05:51:26.279Z,960.91
2022-10-21T05:52:26.239Z,961.01
2022-10-21T05:53:26.194Z,961.11
2022-10-21T05:54:26.151Z,961.25
2022-10-21T05:55:26.110Z,961.35
2022-10-21T05:56:26.084Z,961.46
2022-10-21T05:57:26.034Z,961.46
2022-10-21T05:58:25.986Z,961.45
2022-10-21T05:59:25.943Z,961.39
2022-10-21T06:03:47.873Z,960.98
2022-10-21T06:04:47.486Z,960.87
2022-10-21T06:05:47.677Z,960.75
2022-10-21T06:06:47.750Z,960.71
2022-10-21T06:07:47.347Z,960.75
2022-10-21T06:08:47.536Z,960.69
2022-10-21T06:09:47.282Z,960.57
2022-10-21T06:10:47.407Z,960.52
2022-10-21T06:11:47.481Z,960.47
2022-10-21T06:12:47.136Z,960.37
2022-10-21T06:13:47.222Z,960.29
2022-10-21T06:14:47.051Z,960.13
2022-10-21T06:15:50.348Z,960.11
2022-10-21T06:16:46.973Z,960.20
2022-10-21T06:17:47.053Z,960.31
2022-10-21T06:18:46.871Z,960.50
2022-10-21T06:19:50.133Z,960.65
2022-10-21T06:20:46.789Z,960.59
2022-10-21T06:21:46.880Z,960.43
2022-10-21T06:22:46.713Z,960.26
2022-10-21T06:23:46.951Z,960.20
2022-10-21T06:24:46.615Z,960.17
2022-10-21T06:25:46.708Z,960.18
2022-10-21T06:26:46.527Z,960.04
2022-10-21T06:27:46.710Z,960.10
2022-10-21T06:28:46.452Z,960.14
2022-10-21T06:29:46.441Z,960.08
2022-10-21T06:30:46.360Z,959.96
2022-10-21T06:31:46.539Z,959.92
2022-10-21T06:32:46.281Z,959.93
2022-10-21T06:33:46.342Z,959.97
2022-10-21T06:34:46.190Z,960.01
2022-10-21T06:35:46.411Z,960.00
2022-10-21T06:36:46.386Z,959.99
2022-10-21T06:37:46.056Z,959.96
2022-10-21T06:38:46.180Z,959.98
2022-10-21T06:39:45.971Z,959.96
2022-10-21T06:40:46.190Z,960.02
2022-10-21T06:41:45.897Z,960.09
2022-10-21T06:42:46.003Z,960.11
2022-10-21T06:43:45.803Z,960.14
2022-10-21T06:44:45.909Z,960.22
2022-10-21T06:45:45.709Z,960.20
2022-10-21T06:46:45.678Z,960.19
2022-10-21T06:47:45.905Z,960.24
2022-10-21T06:48:45.847Z,960.26
2022-10-21T06:49:45.546Z,960.27
2022-10-21T06:50:46.776Z,960.33
2022-10-21T06:51:45.457Z,960.37
2022-10-21T06:52:45.423Z,960.42
2022-10-21T06:53:47.619Z,960.53
2022-10-21T06:54:45.336Z,960.53
2022-10-21T06:55:45.598Z,960.52
2022-10-21T06:56:45.437Z,960.55
2022-10-21T06:57:45.399Z,960.58
2022-10-21T06:58:45.169Z,960.62
2022-10-21T06:59:46.434Z,960.64
2022-10-21T07:00:45.077Z,960.66
2022-10-21T07:02:01.330Z,960.56
2022-10-21T07:02:45.043Z,960.56
2022-10-21T07:03:45.230Z,960.69
2022-10-21T07:04:44.902Z,960.71
2022-10-21T07:05:45.245Z,960.68
2022-10-21T07:06:44.825Z,960.63
2022-10-21T07:07:45.133Z,960.67
2022-10-21T07:08:53.937Z,960.64
2022-10-21T07:09:44.778Z,960.55
2022-10-21T07:10:44.870Z,960.51
2022-10-21T07:11:44.638Z,960.50
2022-10-21T07:12:44.685Z,960.43
2022-10-21T07:13:44.521Z,960.54
2022-10-21T07:14:44.770Z,960.54
2022-10-21T07:15:44.517Z,960.56
2022-10-21T07:16:46.660Z,960.57
2022-10-21T07:17:44.403Z,960.54
2022-10-21T07:18:45.547Z,960.51
2022-10-21T07:19:44.276Z,960.49
2022-10-21T07:20:44.333Z,960.60
2022-10-21T07:21:44.342Z,960.58
2022-10-21T07:22:44.397Z,960.50
2022-10-21T07:23:44.355Z,960.55
2022-10-21T07:24:44.058Z,960.61
2022-10-21T07:25:45.205Z,960.63
2022-10-21T07:26:43.966Z,960.71
2022-10-21T07:27:47.361Z,960.81
2022-10-21T07:28:44.185Z,960.80
2022-10-21T07:29:43.839Z,960.77
2022-10-21T07:30:43.995Z,960.87
2022-10-21T07:31:44.062Z,960.87
2022-10-21T07:32:44.929Z,960.86
2022-10-21T07:33:43.670Z,960.91
2022-10-21T07:34:43.932Z,961.00
2022-10-21T07:35:43.621Z,961.07
2022-10-21T07:36:43.734Z,961.12
2022-10-21T07:37:43.523Z,961.13
2022-10-21T07:38:43.461Z,961.27
2022-10-21T07:39:43.419Z,961.34
2022-10-21T07:40:43.670Z,961.52
2022-10-21T07:41:43.332Z,962.09
2022-10-21T07:42:43.575Z,962.83
2022-10-21T07:43:43.429Z,963.40
2022-10-21T07:44:43.209Z,963.42
2022-10-21T07:45:43.165Z,963.13
2022-10-21T07:46:44.419Z,963.11
2022-10-21T07:47:43.083Z,962.83
2022-10-21T07:48:44.241Z,962.71
2022-10-21T07:49:43.045Z,962.70
2022-10-21T07:50:42.955Z,962.75
2022-10-21T07:51:43.299Z,962.82
2022-10-21T07:52:48.362Z,962.79
2022-10-21T07:53:42.822Z,963.00
2022-10-21T07:54:44.071Z,962.88
2022-10-21T07:55:42.908Z,962.96
2022-10-21T07:56:42.698Z,963.06
2022-10-21T07:57:42.862Z,962.97
2022-10-21T07:58:42.615Z,962.98
2022-10-21T07:59:42.781Z,962.83
2022-10-21T08:00:42.570Z,962.84
2022-10-21T08:01:42.873Z,962.74
2022-10-21T08:02:42.441Z,962.67
2022-10-21T08:03:42.600Z,962.59
2022-10-21T08:04:42.358Z,962.52
2022-10-21T08:05:42.618Z,962.48
2022-10-21T08:06:42.348Z,962.55
2022-10-21T08:07:42.477Z,962.58
2022-10-21T08:08:42.241Z,962.61
2022-10-21T08:09:42.493Z,962.60
2022-10-21T08:10:42.112Z,962.58
2022-10-21T08:11:42.250Z,962.58
2022-10-21T08:12:42.013Z,962.53
2022-10-21T08:13:41.988Z,962.52
2022-10-21T08:14:41.922Z,962.51
2022-10-21T08:15:43.097Z,962.51
2022-10-21T08:16:41.833Z,962.52
2022-10-21T08:17:42.086Z,962.53
2022-10-21T08:18:41.789Z,962.57
2022-10-21T08:19:41.729Z,962.60
2022-10-21T08:20:41.900Z,962.64
2022-10-21T08:21:41.620Z,962.68
2022-10-21T08:22:41.866Z,962.69
2022-10-21T08:23:41.556Z,962.72
2022-10-21T08:24:42.458Z,962.69
2022-10-21T08:25:41.934Z,962.70
2022-10-21T08:26:41.399Z,962.76
2022-10-21T08:27:41.544Z,962.72
2022-10-21T08:28:41.604Z,962.70
2022-10-21T08:29:42.586Z,962.69
2022-10-21T08:30:41.236Z,962.74
2022-10-21T08:31:41.192Z,962.65
2022-10-21T08:32:41.563Z,962.62
2022-10-21T08:33:41.107Z,962.60
2022-10-21T08:34:41.346Z,962.60
2022-10-21T08:35:41.356Z,962.55
2022-10-21T08:36:41.099Z,962.55
2022-10-21T08:37:40.935Z,962.56
2022-10-21T08:38:42.135Z,962.57
2022-10-21T08:39:40.842Z,962.48
2022-10-21T08:40:40.920Z,962.45
2022-10-21T08:41:40.792Z,962.37
2022-10-21T08:42:40.959Z,962.40
2022-10-21T08:43:40.725Z,962.44
2022-10-21T08:44:40.859Z,962.46
2022-10-21T08:45:40.593Z,962.40
2022-10-21T08:46:40.864Z,962.38
2022-10-21T08:47:40.722Z,962.36
2022-10-21T08:48:40.777Z,962.39
2022-10-21T08:49:40.425Z,962.34
2022-10-21T08:50:40.791Z,962.38
2022-10-21T08:51:40.336Z,962.39
2022-10-21T08:52:40.606Z,962.34
2022-10-21T08:53:40.270Z,962.37
2022-10-21T08:54:40.531Z,962.33
2022-10-21T08:55:40.417Z,962.36
2022-10-21T08:56:40.142Z,962.37
2022-10-21T08:57:41.735Z,962.35
2022-10-21T08:58:40.288Z,962.39
2022-10-21T08:59:40.247Z,962.36
2022-10-21T09:00:40.226Z,962.33
2022-10-21T09:01:39.908Z,962.31
2022-10-21T09:02:40.087Z,962.30
2022-10-21T09:03:39.831Z,962.31
2022-10-21T09:04:40.088Z,962.35
2022-10-21T09:05:39.751Z,962.33
2022-10-21T09:06:41.314Z,962.32
2022-10-21T09:07:39.774Z,962.37
2022-10-21T09:08:39.942Z,962.31
2022-10-21T09:09:39.567Z,962.36
2022-10-21T09:10:39.646Z,962.44
2022-10-21T09:11:39.487Z,962.44
2022-10-21T09:12:39.618Z,962.48
2022-10-21T09:13:39.396Z,962.53
2022-10-21T09:14:39.640Z,962.61
2022-10-21T09:15:39.320Z,962.60
2022-10-21T09:16:39.343Z,962.62
2022-10-21T09:17:39.598Z,962.57
2022-10-21T09:18:40.601Z,962.58
2022-10-21T09:19:39.155Z,962.61
2022-10-21T09:20:39.372Z,962.63
2022-10-21T09:21:39.067Z,962.60
2022-10-21T09:22:39.179Z,962.64
2022-10-21T09:23:38.993Z,962.66
2022-10-21T09:24:39.133Z,962.59
2022-10-21T09:25:38.895Z,962.55
2022-10-21T09:26:39.008Z,962.54
2022-10-21T09:27:55.130Z,962.54
2022-10-21T09:28:38.772Z,962.53
2022-10-21T09:29:38.829Z,962.61
2022-10-21T09:30:38.697Z,962.65
2022-10-21T09:31:38.651Z,962.65
2022-10-21T09:32:39.865Z,962.56
2022-10-21T09:33:38.579Z,962.55
2022-10-21T09:34:38.656Z,962.49
2022-10-21T09:35:38.615Z,962.48
2022-10-21T09:36:38.563Z,962.49
2022-10-21T09:37:38.578Z,962.47
2022-10-21T09:38:38.476Z,962.44
2022-10-21T09:39:38.330Z,962.45
2022-10-21T09:40:38.489Z,962.41
2022-10-21T09:41:38.237Z,962.38
2022-10-21T09:42:47.304Z,962.33
2022-10-21T09:43:38.463Z,962.41
2022-10-21T09:44:38.211Z,962.46
2022-10-21T09:45:38.078Z,962.46
2022-10-21T09:46:38.232Z,962.48
2022-10-21T09:47:37.986Z,962.58
2022-10-21T09:48:53.995Z,962.69
2022-10-21T09:50:05.280Z,962.69
2022-10-21T09:50:37.857Z,962.72
2022-10-21T09:51:38.879Z,962.72
2022-10-21T09:52:38.110Z,962.77
2022-10-21T09:53:37.768Z,962.76
2022-10-21T09:54:39.824Z,962.72
2022-10-21T09:55:37.841Z,962.71
2022-10-21T09:56:37.794Z,962.70
2022-10-21T09:57:37.577Z,962.68
2022-10-21T09:58:37.609Z,962.72
2022-10-21T09:59:37.580Z,962.73
2022-10-21T10:00:37.444Z,962.65
2022-10-21T10:01:38.585Z,962.65
2022-10-21T10:02:37.618Z,962.64
2022-10-21T10:03:37.534Z,962.64
2022-10-21T10:04:37.287Z,962.62
2022-10-21T10:05:37.342Z,962.65
2022-10-21T10:06:37.197Z,962.65
2022-10-21T10:07:37.160Z,962.67
2022-10-21T10:08:37.322Z,962.71
2022-10-21T10:09:40.702Z,962.74
2022-10-21T10:10:37.176Z,962.80
2022-10-21T10:11:36.996Z,962.84
2022-10-21T10:12:37.208Z,962.86
2022-10-21T10:13:36.989Z,962.89
2022-10-21T10:14:36.864Z,962.91
2022-10-21T10:15:37.928Z,962.93
2022-10-21T10:16:36.833Z,962.87
2022-10-21T10:17:36.920Z,962.87
2022-10-21T10:18:36.703Z,962.78
2022-10-21T10:20:36.631Z,962.71
2022-10-21T10:21:36.639Z,962.70
2022-10-21T10:22:37.996Z,962.71
2022-10-21T10:23:36.756Z,962.73
2022-10-21T10:24:36.457Z,962.73
2022-10-21T10:25:36.567Z,962.72
2022-10-21T10:26:36.620Z,962.78
2022-10-21T10:27:36.378Z,962.76
2022-10-21T10:28:36.326Z,962.72
2022-10-21T10:29:38.333Z,962.76
2022-10-21T10:30:36.213Z,962.77
2022-10-21T10:31:36.411Z,962.75
2022-10-21T10:32:36.374Z,962.76
2022-10-21T10:33:38.269Z,962.76
2022-10-21T10:34:36.047Z,962.76
2022-10-21T10:35:36.011Z,962.78
2022-10-21T10:36:35.987Z,962.77
2022-10-21T10:37:36.074Z,962.78
2022-10-21T10:38:35.886Z,962.80
2022-10-21T10:39:36.062Z,962.79
2022-10-21T10:40:35.828Z,962.81
2022-10-21T10:41:35.761Z,962.82
2022-10-21T10:42:38.092Z,962.79
2022-10-21T10:43:35.828Z,962.83
2022-10-21T10:44:35.799Z,962.82
2022-10-21T10:45:35.609Z,962.79
2022-10-21T10:46:35.771Z,962.79
2022-10-21T10:47:35.651Z,962.80
2022-10-21T10:48:35.712Z,962.75
2022-10-21T10:49:35.475Z,962.70
2022-10-21T10:50:35.419Z,962.69
2022-10-21T10:51:35.355Z,962.66
2022-10-21T10:52:35.473Z,962.63
2022-10-21T10:53:35.279Z,962.63
2022-10-21T10:54:35.446Z,962.62
2022-10-21T10:55:35.308Z,962.66
2022-10-21T10:56:35.258Z,962.70
2022-10-21T10:57:44.421Z,962.71
2022-10-21T10:58:35.068Z,962.73
2022-10-21T10:59:35.176Z,962.79
2022-10-21T11:00:34.992Z,962.79
2022-10-21T11:01:36.154Z,962.83
2022-10-21T11:02:34.909Z,962.86
2022-10-21T11:03:37.917Z,962.90
2022-10-21T11:04:34.833Z,962.90
2022-10-21T11:05:35.945Z,962.90
2022-10-21T11:06:34.755Z,962.87
2022-10-21T11:07:34.934Z,962.90
2022-10-21T11:08:34.971Z,962.89
2022-10-21T11:09:34.799Z,962.85
2022-10-21T11:10:34.742Z,962.82
2022-10-21T11:11:34.551Z,962.78
2022-10-21T11:12:34.553Z,962.82
2022-10-21T11:13:35.514Z,962.80
2022-10-21T11:14:55.667Z,962.82
2022-10-21T11:15:34.389Z,962.79
2022-10-21T11:16:50.603Z,962.74
2022-10-21T11:17:34.557Z,962.78
2022-10-21T11:18:34.270Z,962.77
2022-10-21T11:19:34.403Z,962.77
2022-10-21T11:20:34.455Z,962.76
2022-10-21T11:21:34.226Z,962.79
2022-10-21T11:22:34.219Z,962.82
2022-10-21T11:23:34.074Z,962.84
2022-10-21T11:24:35.259Z,962.83
2022-10-21T11:25:34.024Z,962.83
2022-10-21T11:26:34.103Z,962.83
2022-10-21T11:27:33.916Z,962.90
2022-10-21T11:28:33.891Z,962.86
2022-10-21T11:29:34.095Z,962.88
2022-10-21T11:30:33.798Z,962.86
2022-10-21T11:31:43.907Z,962.92
2022-10-21T11:32:33.712Z,962.91
2022-10-21T11:33:34.719Z,962.97
2022-10-21T11:34:33.632Z,962.98
2022-10-21T11:35:34.738Z,962.99
2022-10-21T11:36:33.545Z,962.93
2022-10-21T11:37:33.711Z,962.92
2022-10-21T11:38:33.464Z,962.95
2022-10-21T11:39:34.551Z,962.95
2022-10-21T11:40:35.632Z,962.91
2022-10-21T11:41:34.569Z,962.91
2022-10-21T11:42:33.372Z,962.88
2022-10-21T11:43:34.373Z,962.84
2022-10-21T11:44:33.227Z,962.83
2022-10-21T11:45:33.208Z,962.88
2022-10-21T11:46:33.161Z,962.80
2022-10-21T11:47:33.681Z,962.76
2022-10-21T11:48:33.093Z,962.72
2022-10-21T11:49:36.383Z,962.72
2022-10-21T11:50:32.988Z,962.71
2022-10-21T11:51:33.043Z,962.70
2022-10-21T11:52:32.909Z,962.73
2022-10-21T11:53:33.012Z,962.66
2022-10-21T11:54:32.828Z,962.65
2022-10-21T11:55:34.050Z,962.64
2022-10-21T11:56:32.744Z,962.66
2022-10-21T11:57:32.709Z,962.66
2022-10-21T11:58:33.769Z,962.63
2022-10-21T11:59:32.638Z,962.67
2022-10-21T12:00:32.759Z,962.65
2022-10-21T12:01:32.545Z,962.65
2022-10-21T12:02:33.628Z,962.63
2022-10-21T12:03:32.467Z,962.59
2022-10-21T12:04:32.574Z,962.59
2022-10-21T12:05:32.388Z,962.63
2022-10-21T12:06:33.091Z,962.60
2022-10-21T12:07:32.400Z,962.58
2022-10-21T12:08:32.271Z,962.60
2022-10-21T12:09:32.230Z,962.64
2022-10-21T12:10:32.419Z,962.57
2022-10-21T12:11:32.153Z,962.57
2022-10-21T12:12:33.167Z,962.57
2022-10-21T12:13:33.308Z,962.56
2022-10-21T12:14:32.038Z,962.50
2022-10-21T12:15:31.998Z,962.54
2022-10-21T12:16:32.054Z,962.53
2022-10-21T12:17:31.982Z,962.56
2022-10-21T12:18:31.967Z,962.54
2022-10-21T12:19:31.871Z,962.57
2022-10-21T12:20:31.806Z,962.50
2022-10-21T12:21:31.891Z,962.47
2022-10-21T12:22:31.730Z,962.47
2022-10-21T12:23:31.797Z,962.51
2022-10-21T12:24:31.657Z,962.49
2022-10-21T12:25:31.829Z,962.54
2022-10-21T12:26:31.626Z,962.57
2022-10-21T12:27:32.653Z,962.60
2022-10-21T12:28:31.531Z,962.56
2022-10-21T12:29:31.647Z,962.63
2022-10-21T12:30:31.434Z,962.64
2022-10-21T12:31:31.652Z,962.61
2022-10-21T12:32:31.357Z,962.60
2022-10-21T12:33:31.455Z,962.59